TimeEST,TemperatureF,Dew PointF,Humidity,Sea Level PressureIn,VisibilityMPH,Wind Direction,Wind SpeedMPH,Gust SpeedMPH,PrecipitationIn,Events,Conditions,WindDirDegrees,DateUTC
12:53 AM,10.9,6.1,81,30.28,8.0,Calm,Calm,-,N/A,,Clear,0,2013-01-03 05:53:00
1:53 AM,10.0,6.1,84,30.27,7.0,Calm,Calm,-,N/A,,Clear,0,2013-01-03 06:53:00
2:53 AM,8.1,3.9,83,30.27,7.0,Calm,Calm,-,N/A,,Clear,0,2013-01-03 07:53:00
3:53 AM,9.0,5.0,84,30.26,8.0,Calm,Calm,-,N/A,,Clear,0,2013-01-03 08:53:00
4:53 AM,8.1,3.9,83,30.27,7.0,Calm,Calm,-,N/A,,Clear,0,2013-01-03 09:53:00
5:53 AM,7.0,3.0,84,30.27,6.0,Calm,Calm,-,N/A,,Clear,0,2013-01-03 10:53:00
6:53 AM,5.0,1.9,87,30.29,7.0,Calm,Calm,-,N/A,,Clear,0,2013-01-03 11:53:00
7:53 AM,5.0,1.0,84,30.30,7.0,Calm,Calm,-,N/A,,Clear,0,2013-01-03 12:53:00
8:53 AM,10.0,6.1,84,30.30,6.0,Calm,Calm,-,N/A,,Clear,0,2013-01-03 13:53:00
9:53 AM,17.1,12.9,84,30.30,7.0,Calm,Calm,-,N/A,,Clear,0,2013-01-03 14:53:00
10:53 AM,27.0,12.9,56,30.30,10.0,WSW,4.6,-,N/A,,Clear,250,2013-01-03 15:53:00
11:53 AM,30.9,12.9,47,30.29,10.0,WSW,8.1,-,N/A,,Clear,250,2013-01-03 16:53:00
12:53 PM,34.0,15.1,46,30.27,10.0,West,5.8,-,N/A,,Clear,260,2013-01-03 17:53:00
1:53 PM,36.0,21.9,57,30.26,10.0,WSW,13.8,-,N/A,,Mostly Cloudy,250,2013-01-03 18:53:00
2:53 PM,34.0,21.0,59,30.28,10.0,West,11.5,17.3,N/A,,Clear,280,2013-01-03 19:53:00
3:53 PM,34.0,21.0,59,30.30,10.0,West,8.1,-,N/A,,Clear,260,2013-01-03 20:53:00
4:53 PM,32.0,21.0,64,30.31,10.0,WSW,6.9,-,N/A,,Mostly Cloudy,240,2013-01-03 21:53:00
5:53 PM,32.0,21.0,64,30.32,10.0,Variable,3.5,-,N/A,,Overcast,0,2013-01-03 22:53:00
6:53 PM,32.0,21.0,64,30.34,10.0,West,3.5,-,N/A,,Overcast,260,2013-01-03 23:53:00
7:53 PM,32.0,21.9,66,30.34,10.0,West,4.6,-,N/A,,Overcast,260,2013-01-04 00:53:00
8:53 PM,32.0,21.9,66,30.34,10.0,West,4.6,-,N/A,,Overcast,270,2013-01-04 01:53:00
9:50 PM,32.0,21.2,64,30.32,10.0,WNW,9.2,-,N/A,,Overcast,290,2013-01-04 02:50:00
9:53 PM,32.0,21.9,66,30.35,10.0,West,9.2,-,N/A,,Overcast,280,2013-01-04 02:53:00
10:41 PM,32.0,21.2,64,30.33,10.0,West,5.8,-,N/A,,Overcast,260,2013-01-04 03:41:00
10:53 PM,32.0,21.0,64,30.35,10.0,West,5.8,-,N/A,,Overcast,280,2013-01-04 03:53:00
11:53 PM,30.9,23.0,72,30.35,10.0,WSW,3.5,-,N/A,,Overcast,250,2013-01-04 04:53:00